| time (UTC) | temp F | wind direction | speed MPH | gust MPH | rain 1hr in | rain 24hr in | rain mn in | humidity % | barometer mb |
| 20260507130021 | 60 | 139 | 10.0 | 17.0 | 0.00 | 0.00 | 0.00 | 71 | 1013.7 |
| 20260507124534 | 62 | 89 | 10.0 | 17.0 | 0.00 | 0.00 | 0.00 | 68 | 1014.3 |
| 20260507121516 | 61 | 109 | 11.0 | 18.0 | 0.00 | 0.00 | 0.00 | 66 | 1014.1 |
| 20260507120007 | 61 | 98 | 10.0 | 17.0 | 0.00 | 0.00 | 0.00 | 65 | 1013.7 |
| 20260507113027 | 60 | 87 | 12.0 | 22.0 | 0.00 | 0.00 | 0.00 | 61 | 1013.9 |
| 20260507111512 | 62 | 68 | 13.0 | 26.0 | 0.00 | 0.00 | 0.00 | 58 | 1014.2 |
| 20260507110018 | 62 | 88 | 14.0 | 22.0 | 0.00 | 0.00 | 0.00 | 57 | 1014.5 |
| 20260507104504 | 63 | 58 | 10.0 | 18.0 | 0.00 | 0.00 | 0.00 | 55 | 1014.4 |
| 20260507103004 | 62 | 85 | 15.0 | 22.0 | 0.00 | 0.00 | 0.00 | 54 | 1014.5 |
| 20260507101516 | 61 | 101 | 18.0 | 28.0 | 0.00 | 0.00 | 0.00 | 53 | 1014.3 |
| 20260507100016 | 62 | 96 | 16.0 | 25.0 | 0.00 | 0.00 | 0.00 | 50 | 1014.6 |
| 20260507094521 | 61 | 79 | 17.0 | 29.0 | 0.00 | 0.00 | 0.00 | 48 | 1014.8 |
| 20260507093004 | 62 | 93 | 13.0 | 27.0 | 0.00 | 0.00 | 0.00 | 47 | 1014.8 |
| 20260507091508 | 61 | 108 | 13.0 | 25.0 | 0.00 | 0.00 | 0.00 | 46 | 1014.9 |
| 20260507090013 | 61 | 135 | 14.0 | 24.0 | 0.00 | 0.00 | 0.00 | 47 | 1015.0 |
| 20260507084517 | 60 | 108 | 15.0 | 24.0 | 0.00 | 0.00 | 0.00 | 49 | 1015.1 |
| 20260507073017 | 58 | 134 | 15.0 | 25.0 | 0.00 | 0.00 | 0.00 | 58 | 1014.8 |
| 20260507071520 | 59 | 117 | 12.0 | 21.0 | 0.00 | 0.00 | 0.00 | 52 | 1014.9 |
| 20260507063020 | 58 | 122 | 11.0 | 21.0 | 0.00 | 0.00 | 0.00 | 45 | 1015.0 |
| 20260507061521 | 57 | 118 | 12.0 | 22.0 | 0.00 | 0.00 | 0.00 | 46 | 1014.9 |
| 20260507060022 | 57 | 101 | 10.0 | 17.0 | 0.00 | 0.00 | 0.00 | 45 | 1014.7 |
| 20260507054506 | 57 | 114 | 10.0 | 20.0 | 0.00 | 0.00 | 0.00 | 44 | 1014.6 |
| 20260507053014 | 57 | 74 | 11.0 | 19.0 | 0.00 | 0.00 | 0.00 | 43 | 1014.5 |
| 20260507050027 | 56 | 58 | 8.0 | 15.0 | 0.00 | 0.00 | 0.00 | 45 | 1014.7 |
| 20260507044525 | 55 | 96 | 8.0 | 13.0 | 0.00 | 0.00 | 0.00 | 44 | 1014.9 |
| 20260507043019 | 55 | 88 | 8.0 | 14.0 | 0.00 | 0.00 | 0.00 | 44 | 1014.7 |
| 20260507041514 | 55 | 131 | 6.0 | 13.0 | 0.00 | 0.00 | 0.00 | 43 | 1015.1 |
| 20260507040019 | 55 | 90 | 7.0 | 16.0 | 0.00 | 0.00 | 0.00 | 45 | 1015.2 |
| 20260507034523 | 54 | 75 | 8.0 | 14.0 | 0.00 | 0.00 | 0.00 | 47 | 1015.2 |
| 20260507033026 | 54 | 72 | 8.0 | 14.0 | 0.00 | 0.00 | 0.00 | 46 | 1015.6 |
| 20260507031512 | 55 | 63 | 4.0 | 11.0 | 0.00 | 0.00 | 0.00 | 45 | 1015.8 |
| 20260507030021 | 55 | 154 | 6.0 | 12.0 | 0.00 | 0.00 | 0.00 | 42 | 1015.7 |
| 20260507024459 | 55 | 79 | 5.0 | 11.0 | 0.00 | 0.00 | 0.00 | 42 | 1015.8 |
| 20260507023001 | 55 | 65 | 5.0 | 11.0 | 0.00 | 0.00 | 0.00 | 42 | 1015.9 |
| 20260507021500 | 55 | 104 | 5.0 | 12.0 | 0.00 | 0.00 | 0.00 | 43 | 1015.9 |
| 20260507020003 | 56 | 98 | 5.0 | 12.0 | 0.00 | 0.00 | 0.00 | 43 | 1015.8 |
| 20260507014500 | 56 | 98 | 6.0 | 11.0 | 0.00 | 0.00 | 0.00 | 43 | 1015.7 |
| 20260507012959 | 55 | 63 | 5.0 | 9.0 | 0.00 | 0.00 | 0.00 | 43 | 1015.6 |
| 20260507011500 | 55 | 152 | 3.0 | 8.0 | 0.00 | 0.00 | 0.00 | 46 | 1015.9 |
| 20260507010004 | 55 | 34 | 6.0 | 11.0 | 0.00 | 0.00 | 0.00 | 45 | 1016.0 |
| 20260507004502 | 55 | 75 | 4.0 | 12.0 | 0.00 | 0.00 | 0.00 | 48 | 1016.3 |
| 20260507003000 | 54 | 39 | 2.0 | 7.0 | 0.00 | 0.00 | 0.00 | 51 | 1016.2 |
| 20260507001505 | 54 | 57 | 3.0 | 5.0 | 0.00 | 0.00 | 0.00 | 52 | 1016.3 |
| 20260507000000 | 54 | 68 | 2.0 | 7.0 | 0.00 | 0.00 | 0.00 | 50 | 1016.7 |
| 20260506234500 | 55 | 60 | 4.0 | 9.0 | 0.00 | 0.00 | 0.00 | 50 | 1016.6 |
| 20260506233003 | 54 | 63 | 3.0 | 8.0 | 0.00 | 0.00 | 0.00 | 50 | 1016.7 |
| 20260506231501 | 54 | 65 | 3.0 | 6.0 | 0.00 | 0.00 | 0.00 | 51 | 1017.2 |
| 20260506230000 | 55 | 49 | 1.0 | 6.0 | 0.00 | 0.00 | 0.00 | 50 | 1017.4 |
| 20260506224500 | 55 | 100 | 3.0 | 7.0 | 0.00 | 0.00 | 0.00 | 48 | 1017.5 |
| 20260506223002 | 55 | 97 | 3.0 | 5.0 | 0.00 | 0.00 | 0.00 | 48 | 1017.4 |
| 20260506221504 | 55 | 66 | 3.0 | 6.0 | 0.00 | 0.00 | 0.00 | 48 | 1017.4 |
| 20260506220003 | 55 | 32 | 3.0 | 6.0 | 0.00 | 0.00 | 0.00 | 50 | 1017.2 |
| 20260506214502 | 56 | 75 | 2.0 | 5.0 | 0.00 | 0.00 | 0.00 | 50 | 1017.5 |
| 20260506213002 | 56 | 60 | 2.0 | 5.0 | 0.00 | 0.00 | 0.00 | 53 | 1017.6 |
| 20260506210007 | 56 | 43 | 4.0 | 7.0 | 0.00 | 0.00 | 0.00 | 54 | 1017.6 |
| 20260506204502 | 56 | 78 | 3.0 | 6.0 | 0.00 | 0.00 | 0.00 | 57 | 1017.3 |
| 20260506203001 | 56 | 64 | 3.0 | 8.0 | 0.00 | 0.00 | 0.00 | 58 | 1017.6 |
| 20260506201503 | 56 | 26 | 3.0 | 6.0 | 0.00 | 0.00 | 0.00 | 58 | 1017.3 |
| 20260506200004 | 56 | 79 | 2.0 | 10.0 | 0.00 | 0.00 | 0.00 | 55 | 1017.3 |
| 20260506194506 | 56 | 76 | 6.0 | 12.0 | 0.00 | 0.00 | 0.00 | 54 | 1016.5 |
| 20260506193002 | 57 | 73 | 4.0 | 8.0 | 0.00 | 0.00 | 0.00 | 59 | 1016.6 |
| 20260506191507 | 56 | 56 | 4.0 | 12.0 | 0.00 | 0.00 | 0.00 | 63 | 1016.6 |
| 20260506190002 | 56 | 56 | 8.0 | 14.0 | 0.00 | 0.00 | 0.00 | 66 | 1015.5 |
| 20260506184504 | 56 | 75 | 6.0 | 9.0 | 0.00 | 0.00 | 0.00 | 72 | 1015.8 |
| 20260506183005 | 56 | 88 | 4.0 | 11.0 | 0.00 | 0.00 | 0.00 | 75 | 1016.2 |
| 20260506181502 | 56 | 75 | 2.0 | 5.0 | 0.00 | 0.00 | 0.00 | 75 | 1016.8 |
| 20260506180003 | 56 | 96 | 2.0 | 4.0 | 0.00 | 0.00 | 0.00 | 76 | 1017.2 |
| 20260506174502 | 57 | 148 | 3.0 | 6.0 | 0.00 | 0.00 | 0.00 | 76 | 1017.5 |
| 20260506173004 | 58 | 107 | 3.0 | 7.0 | 0.00 | 0.00 | 0.00 | 76 | 1017.5 |
| 20260506171504 | 59 | 150 | 5.0 | 9.0 | 0.00 | 0.00 | 0.00 | 74 | 1017.3 |
| 20260506170002 | 60 | 114 | 3.0 | 6.0 | 0.00 | 0.00 | 0.00 | 73 | 1016.8 |
| 20260506164513 | 61 | 113 | 2.0 | 6.0 | 0.00 | 0.00 | 0.00 | 73 | 1017.1 |
| 20260506163006 | 61 | 146 | 3.0 | 7.0 | 0.00 | 0.00 | 0.00 | 71 | 1017.0 |
| 20260506161504 | 61 | 87 | 3.0 | 7.0 | 0.00 | 0.00 | 0.00 | 71 | 1017.0 |
| 20260506160005 | 62 | 113 | 4.0 | 8.0 | 0.00 | 0.00 | 0.00 | 68 | 1017.5 |
| 20260506154508 | 64 | 172 | 5.0 | 8.0 | 0.00 | 0.00 | 0.00 | 65 | 1017.9 |
| 20260506153002 | 64 | 153 | 6.0 | 9.0 | 0.00 | 0.00 | 0.00 | 64 | 1018.0 |
| 20260506151502 | 64 | 119 | 4.0 | 7.0 | 0.00 | 0.00 | 0.00 | 59 | 1017.8 |
| 20260506150004 | 65 | 148 | 4.0 | 7.0 | 0.00 | 0.00 | 0.00 | 57 | 1018.0 |
| 20260506144521 | 65 | 126 | 4.0 | 8.0 | 0.00 | 0.00 | 0.00 | 57 | 1018.1 |
| 20260506143012 | 65 | 104 | 3.0 | 8.0 | 0.00 | 0.00 | 0.00 | 53 | 1018.1 |
| 20260506141508 | 67 | 164 | 5.0 | 8.0 | 0.00 | 0.00 | 0.00 | 50 | 1018.2 |
| 20260506140002 | 66 | 98 | 4.0 | 10.0 | 0.00 | 0.00 | 0.00 | 53 | 1018.1 |
| 20260506134504 | 66 | 97 | 6.0 | 10.0 | 0.00 | 0.00 | 0.00 | 51 | 1018.1 |
| 20260506133006 | 66 | 91 | 3.0 | 11.0 | 0.00 | 0.00 | 0.00 | 53 | 1018.3 |